createdAt,value
2018-04-13T00:00:27.248Z,15.28
2018-04-13T00:02:54.797Z,15.75
2018-04-13T00:05:38.854Z,15.81
2018-04-13T00:08:06.399Z,15.93
2018-04-13T00:10:33.954Z,16.04
2018-04-13T00:13:01.525Z,16.23
2018-04-13T00:15:29.092Z,16.15
2018-04-13T00:17:56.638Z,16.23
2018-04-13T00:20:24.186Z,16.17
2018-04-13T00:22:51.763Z,15.73
2018-04-13T00:25:19.315Z,15.07
2018-04-13T00:27:46.879Z,14.72
2018-04-13T00:30:14.429Z,14.34
2018-04-13T00:32:41.958Z,14.03
2018-04-13T00:35:09.505Z,14.02
2018-04-13T00:37:37.029Z,13.83
2018-04-13T00:40:04.601Z,13.45
2018-04-13T00:42:32.147Z,13.15
2018-04-13T00:44:59.683Z,13.15
2018-04-13T00:47:27.224Z,13.36
2018-04-13T00:49:54.777Z,13.18
2018-04-13T00:52:22.297Z,13.19
2018-04-13T00:54:49.848Z,13.08
2018-04-13T00:57:17.381Z,12.91
2018-04-13T00:59:44.906Z,12.95
2018-04-13T01:02:12.464Z,13.05
2018-04-13T01:04:40.010Z,13.10
2018-04-13T01:07:07.566Z,12.95
2018-04-13T01:09:35.146Z,12.80
2018-04-13T01:12:02.685Z,12.63
2018-04-13T01:14:30.223Z,12.74
2018-04-13T01:16:57.767Z,12.69
2018-04-13T01:19:25.307Z,12.50
2018-04-13T01:21:52.861Z,12.29
2018-04-13T01:24:20.431Z,12.25
2018-04-13T01:26:47.965Z,12.24
2018-04-13T01:29:15.506Z,12.18
2018-04-13T01:31:43.056Z,11.97
2018-04-13T01:34:10.765Z,11.96
2018-04-13T01:36:38.317Z,11.93
2018-04-13T01:39:06.753Z,11.77
2018-04-13T01:41:34.282Z,11.63
2018-04-13T01:44:01.867Z,11.58
2018-04-13T01:46:29.381Z,11.59
2018-04-13T01:48:56.872Z,11.50
2018-04-13T01:51:24.356Z,11.38
2018-04-13T01:53:51.871Z,11.34
2018-04-13T01:56:19.344Z,11.23
2018-04-13T01:58:46.830Z,11.14
2018-04-13T02:01:14.309Z,11.06
2018-04-13T02:03:42.150Z,11.14
2018-04-13T02:06:09.623Z,11.36
2018-04-13T02:08:37.173Z,11.09
2018-04-13T02:11:04.727Z,10.97
2018-04-13T02:13:32.294Z,10.99
2018-04-13T02:15:59.796Z,11.02
2018-04-13T02:18:27.403Z,10.96
2018-04-13T02:20:54.904Z,10.88
2018-04-13T02:23:22.403Z,10.85
2018-04-13T02:25:49.873Z,10.79
2018-04-13T02:28:17.343Z,10.72
2018-04-13T02:30:44.845Z,10.67
2018-04-13T02:33:12.352Z,10.68
2018-04-13T02:35:39.847Z,10.74
2018-04-13T02:38:07.328Z,10.59
2018-04-13T02:40:35.108Z,10.46
2018-04-13T02:43:03.048Z,10.54
2018-04-13T02:45:30.909Z,10.43
2018-04-13T02:47:58.444Z,10.38
2018-04-13T02:50:26.003Z,10.47
2018-04-13T02:52:53.596Z,10.38
2018-04-13T02:55:21.136Z,10.32
2018-04-13T02:57:48.668Z,10.31
2018-04-13T03:00:16.231Z,10.29
2018-04-13T03:02:43.747Z,10.29
2018-04-13T03:05:11.273Z,10.28
2018-04-13T03:07:38.912Z,10.21
2018-04-13T03:10:06.401Z,10.19
2018-04-13T03:12:33.940Z,10.25
2018-04-13T03:15:01.431Z,10.15
2018-04-13T03:17:28.910Z,10.09
2018-04-13T03:19:56.415Z,10.05
2018-04-13T03:22:23.884Z,10.00
2018-04-13T03:24:51.394Z,10.08
2018-04-13T03:27:18.943Z,10.03
2018-04-13T03:29:46.414Z,10.01
2018-04-13T03:32:13.891Z,10.05
2018-04-13T03:34:41.375Z,10.01
2018-04-13T03:37:08.847Z,10.05
2018-04-13T03:39:36.328Z,9.95
2018-04-13T03:42:03.862Z,9.90
2018-04-13T03:44:31.364Z,9.94
2018-04-13T03:46:58.832Z,9.80
2018-04-13T03:49:26.300Z,9.83
2018-04-13T03:51:53.789Z,9.77
2018-04-13T03:54:21.271Z,9.74
2018-04-13T03:56:48.821Z,9.76
2018-04-13T03:59:16.363Z,10.02
2018-04-13T04:01:43.846Z,9.95
2018-04-13T04:04:11.708Z,9.81
2018-04-13T04:06:39.183Z,9.81
2018-04-13T04:09:06.823Z,9.67
2018-04-13T04:11:34.331Z,9.72
2018-04-13T04:14:01.796Z,9.70
2018-04-13T04:16:29.312Z,9.76
2018-04-13T04:18:56.792Z,9.74
2018-04-13T04:21:35.962Z,9.72
2018-04-13T04:24:15.209Z,9.81
2018-04-13T04:26:48.195Z,9.74
2018-04-13T04:29:15.662Z,9.73
2018-04-13T04:31:43.156Z,9.81
2018-04-13T04:34:10.667Z,9.81
2018-04-13T04:36:38.155Z,9.85
2018-04-13T04:39:06.434Z,9.91
2018-04-13T04:41:33.944Z,9.99
2018-04-13T04:44:01.444Z,10.07
2018-04-13T04:46:28.970Z,10.09
2018-04-13T04:48:56.448Z,10.13
2018-04-13T04:51:23.987Z,10.23
2018-04-13T04:53:51.539Z,10.48
2018-04-13T04:56:19.052Z,10.53
2018-04-13T04:58:46.554Z,10.66
2018-04-13T05:01:14.026Z,10.86
2018-04-13T05:03:41.529Z,10.85
2018-04-13T05:06:09.008Z,10.56
2018-04-13T05:08:36.509Z,10.34
2018-04-13T05:11:04.074Z,10.53
2018-04-13T05:13:31.646Z,10.66
2018-04-13T05:15:59.207Z,10.78
2018-04-13T05:18:26.758Z,10.57
2018-04-13T05:20:54.294Z,10.54
2018-04-13T05:23:21.823Z,10.50
2018-04-13T05:25:49.389Z,10.61
2018-04-13T05:28:16.930Z,10.62
2018-04-13T05:30:44.400Z,10.65
2018-04-13T05:33:11.916Z,11.00
2018-04-13T05:35:39.409Z,11.06
2018-04-13T05:38:06.945Z,11.19
2018-04-13T05:40:34.439Z,11.19
2018-04-13T05:43:01.933Z,11.46
2018-04-13T05:45:29.421Z,11.56
2018-04-13T05:47:56.964Z,11.82
2018-04-13T05:50:24.514Z,12.04
2018-04-13T05:52:52.026Z,12.19
2018-04-13T05:55:19.568Z,11.84
2018-04-13T05:57:47.106Z,12.05
2018-04-13T06:00:14.667Z,12.11
2018-04-13T06:02:42.221Z,12.29
2018-04-13T06:05:09.769Z,12.32
2018-04-13T06:07:37.353Z,12.42
2018-04-13T06:10:04.890Z,12.52
2018-04-13T06:12:32.430Z,12.59
2018-04-13T06:14:59.982Z,12.74
2018-04-13T06:17:27.515Z,12.70
2018-04-13T06:19:55.087Z,12.75
2018-04-13T06:22:22.621Z,12.95
2018-04-13T06:24:50.097Z,13.22
2018-04-13T06:27:17.669Z,13.27
2018-04-13T06:29:45.941Z,13.65
2018-04-13T06:32:13.465Z,13.76
2018-04-13T06:34:40.951Z,13.87
2018-04-13T06:37:08.479Z,13.81
2018-04-13T06:39:36.187Z,13.91
2018-04-13T06:42:03.718Z,13.96
2018-04-13T06:44:31.255Z,14.05
2018-04-13T06:46:58.831Z,14.14
2018-04-13T06:49:26.363Z,14.21
2018-04-13T06:51:53.896Z,14.29
2018-04-13T06:54:21.457Z,14.28
2018-04-13T06:56:48.992Z,14.61
2018-04-13T06:59:16.559Z,14.81
2018-04-13T07:01:44.048Z,15.19
2018-04-13T07:04:11.542Z,15.24
2018-04-13T07:06:39.127Z,15.14
2018-04-13T07:09:06.664Z,14.95
2018-04-13T07:11:34.196Z,14.74
2018-04-13T07:14:01.790Z,15.22
2018-04-13T07:16:29.314Z,15.46
2018-04-13T07:18:56.805Z,15.54
2018-04-13T07:21:24.307Z,15.58
2018-04-13T07:23:51.795Z,15.68
2018-04-13T07:26:19.312Z,15.49
2018-04-13T07:28:46.857Z,15.57
2018-04-13T07:31:14.331Z,15.70
2018-04-13T07:33:42.020Z,15.80
2018-04-13T07:36:09.655Z,16.01
2018-04-13T07:38:37.799Z,15.95
2018-04-13T07:41:05.040Z,15.97
2018-04-13T07:43:32.880Z,16.14
2018-04-13T07:46:00.270Z,16.12
2018-04-13T07:48:27.763Z,16.01
2018-04-13T07:50:55.305Z,15.95
2018-04-13T07:53:22.838Z,16.09
2018-04-13T07:55:50.419Z,16.19
2018-04-13T07:58:17.956Z,16.29
2018-04-13T08:00:46.045Z,16.33
2018-04-13T08:03:13.098Z,16.32
2018-04-13T08:05:40.665Z,16.32
2018-04-13T08:08:08.536Z,16.25
2018-04-13T08:10:36.099Z,16.28
2018-04-13T08:13:03.632Z,16.11
2018-04-13T08:15:31.240Z,16.64
2018-04-13T08:17:58.796Z,16.66
2018-04-13T08:20:26.315Z,16.98
2018-04-13T08:22:53.856Z,16.87
2018-04-13T08:25:21.395Z,17.06
2018-04-13T08:27:48.950Z,16.98
2018-04-13T08:30:16.436Z,16.96
2018-04-13T08:32:43.969Z,16.75
2018-04-13T08:35:11.523Z,17.16
2018-04-13T08:37:39.061Z,17.16
2018-04-13T08:40:06.615Z,17.41
2018-04-13T08:42:34.210Z,17.64
2018-04-13T08:45:02.439Z,17.69
2018-04-13T08:47:30.016Z,17.71
2018-04-13T08:49:57.584Z,17.94
2018-04-13T08:52:25.136Z,18.37
2018-04-13T08:54:52.793Z,18.45
2018-04-13T08:57:20.690Z,18.49
2018-04-13T08:59:48.248Z,17.77
2018-04-13T09:02:15.810Z,17.92
2018-04-13T09:04:43.347Z,18.22
2018-04-13T09:07:10.918Z,18.41
2018-04-13T09:09:38.481Z,19.08
2018-04-13T09:12:06.008Z,19.31
2018-04-13T09:14:40.214Z,18.78
2018-04-13T09:17:07.695Z,18.72
2018-04-13T09:19:35.235Z,19.16
2018-04-13T09:22:02.780Z,19.53
2018-04-13T09:24:30.343Z,19.62
2018-04-13T09:26:57.909Z,19.73
2018-04-13T09:29:25.481Z,19.96
2018-04-13T09:31:53.040Z,20.08
2018-04-13T09:34:20.586Z,20.32
2018-04-13T09:36:48.128Z,20.33
2018-04-13T09:39:15.677Z,20.30
2018-04-13T09:41:43.229Z,20.45
2018-04-13T09:44:10.805Z,20.18
2018-04-13T09:46:38.340Z,19.45
2018-04-13T09:49:05.880Z,20.04
2018-04-13T09:51:33.432Z,19.81
2018-04-13T09:54:00.973Z,20.14
2018-04-13T09:56:28.533Z,20.88
2018-04-13T09:58:56.088Z,20.43
2018-04-13T10:01:23.658Z,20.06
2018-04-13T10:06:57.958Z,20.23
2018-04-13T10:09:25.475Z,20.79
2018-04-13T10:11:53.057Z,20.88
2018-04-13T10:14:20.582Z,21.27
2018-04-13T10:16:48.118Z,21.29
2018-04-13T10:19:15.631Z,21.35
2018-04-13T10:21:43.226Z,20.79
2018-04-13T10:24:10.797Z,20.29
2018-04-13T10:26:38.363Z,20.92
2018-04-13T10:29:12.687Z,21.75
2018-04-13T10:31:45.719Z,21.41
2018-04-13T10:34:13.263Z,21.21
2018-04-13T10:36:40.800Z,21.26
2018-04-13T10:39:08.409Z,20.60
2018-04-13T10:41:35.945Z,20.28
2018-04-13T10:44:03.475Z,20.42
2018-04-13T10:46:31.045Z,20.34
2018-04-13T10:48:58.591Z,19.98
2018-04-13T10:51:26.189Z,20.47
2018-04-13T10:53:53.744Z,20.82
2018-04-13T10:56:21.651Z,20.67
2018-04-13T10:58:49.491Z,20.83
2018-04-13T11:01:17.243Z,20.42
2018-04-13T11:03:45.233Z,20.09
2018-04-13T11:06:12.817Z,20.49
2018-04-13T11:08:41.801Z,20.47
2018-04-13T11:11:09.848Z,20.79
2018-04-13T11:13:37.373Z,21.12
2018-04-13T11:16:13.040Z,21.48
2018-04-13T11:18:45.779Z,21.42
2018-04-13T11:21:13.328Z,21.88
2018-04-13T11:23:40.895Z,21.46
2018-04-13T11:26:13.858Z,21.71
2018-04-13T11:28:41.401Z,21.62
2018-04-13T11:31:09.666Z,22.87
2018-04-13T11:33:37.868Z,23.11
2018-04-13T11:36:05.680Z,23.34
2018-04-13T11:38:34.143Z,24.55
2018-04-13T11:41:01.713Z,23.58
2018-04-13T11:43:30.526Z,22.33
2018-04-13T11:45:58.637Z,21.33
2018-04-13T11:48:26.247Z,21.50
2018-04-13T11:50:55.739Z,21.52
2018-04-13T11:53:24.239Z,20.74
2018-04-13T11:55:55.450Z,21.29
2018-04-13T11:58:23.761Z,20.37
2018-04-13T12:00:52.502Z,20.30
2018-04-13T12:03:23.043Z,21.89
2018-04-13T12:05:56.078Z,23.17
2018-04-13T12:11:27.655Z,23.15
2018-04-13T12:13:55.335Z,24.08
2018-04-13T12:16:22.936Z,23.02
2018-04-13T12:18:56.055Z,22.43
2018-04-13T12:21:28.043Z,22.32
2018-04-13T12:23:59.052Z,22.23
2018-04-13T12:26:28.493Z,22.68
2018-04-13T12:28:56.677Z,22.28
2018-04-13T12:31:24.297Z,22.28
2018-04-13T12:33:51.900Z,22.08
2018-04-13T12:36:19.499Z,22.60
2018-04-13T12:38:47.120Z,22.22
2018-04-13T12:41:14.671Z,22.99
2018-04-13T12:43:42.333Z,22.46
2018-04-13T12:46:10.010Z,22.77
2018-04-13T12:48:37.644Z,23.18
2018-04-13T12:51:05.272Z,23.10
2018-04-13T12:53:32.954Z,23.69
2018-04-13T12:56:00.530Z,23.38
2018-04-13T12:58:28.168Z,24.27
2018-04-13T13:00:55.867Z,24.52
2018-04-13T13:03:23.468Z,22.99
2018-04-13T13:05:51.114Z,22.55
2018-04-13T13:08:18.724Z,22.00
2018-04-13T13:10:46.316Z,22.54
2018-04-13T13:13:13.916Z,22.60
2018-04-13T13:15:41.549Z,23.79
2018-04-13T13:18:09.246Z,23.74
2018-04-13T13:20:37.001Z,23.43
2018-04-13T13:23:04.578Z,23.36
2018-04-13T13:25:32.142Z,23.37
2018-04-13T13:28:00.033Z,23.80
2018-04-13T13:30:27.765Z,23.56
2018-04-13T13:32:55.360Z,24.19
2018-04-13T13:35:23.071Z,24.03
2018-04-13T13:37:50.676Z,24.77
2018-04-13T13:40:18.472Z,25.02
2018-04-13T13:42:51.197Z,24.99
2018-04-13T13:45:19.086Z,24.84
2018-04-13T13:47:46.679Z,25.28
2018-04-13T13:50:14.232Z,25.19
2018-04-13T13:52:41.811Z,25.01
2018-04-13T13:55:09.398Z,25.78
2018-04-13T13:57:36.965Z,25.37
2018-04-13T14:00:05.167Z,24.90
2018-04-13T14:02:32.716Z,25.27
2018-04-13T14:05:00.270Z,26.50
2018-04-13T14:07:27.856Z,26.74
2018-04-13T14:12:58.531Z,26.40
2018-04-13T14:15:26.078Z,25.48
2018-04-13T14:17:53.633Z,26.69
2018-04-13T14:20:21.216Z,26.80
2018-04-13T14:22:48.811Z,28.22
2018-04-13T14:25:16.377Z,27.94
2018-04-13T14:27:43.944Z,27.79
2018-04-13T14:30:11.503Z,26.61
2018-04-13T14:32:39.056Z,25.73
2018-04-13T14:35:06.617Z,25.84
2018-04-13T14:37:34.206Z,25.63
2018-04-13T14:40:01.751Z,25.45
2018-04-13T14:42:29.346Z,24.93
2018-04-13T14:44:56.960Z,25.65
2018-04-13T14:47:24.530Z,26.61
2018-04-13T14:49:52.148Z,26.38
2018-04-13T14:52:19.718Z,27.12
2018-04-13T14:54:47.272Z,26.50
2018-04-13T14:57:14.829Z,27.86
2018-04-13T14:59:42.379Z,27.01
2018-04-13T15:02:09.921Z,28.42
2018-04-13T15:04:37.490Z,26.87
2018-04-13T15:07:05.093Z,26.37
2018-04-13T15:09:32.663Z,26.46
2018-04-13T15:12:00.229Z,26.31
2018-04-13T15:14:27.800Z,28.42
2018-04-13T15:16:55.448Z,27.53
2018-04-13T15:19:23.008Z,27.38
2018-04-13T15:21:50.580Z,25.88
2018-04-13T15:24:18.192Z,27.09
2018-04-13T15:26:45.752Z,28.32
2018-04-13T15:29:13.342Z,28.01
2018-04-13T15:31:40.925Z,26.70
2018-04-13T15:34:08.520Z,25.93
2018-04-13T15:36:36.058Z,26.18
2018-04-13T15:39:03.644Z,26.89
2018-04-13T15:41:31.279Z,29.23
2018-04-13T15:43:58.868Z,29.30
2018-04-13T15:46:26.356Z,27.39
2018-04-13T15:48:53.832Z,26.58
2018-04-13T15:51:21.686Z,25.27
2018-04-13T15:53:49.243Z,26.29
2018-04-13T15:56:25.025Z,27.66
2018-04-13T15:59:09.233Z,29.25
2018-04-13T16:01:45.375Z,27.51
2018-04-13T16:04:14.937Z,25.72
2018-04-13T16:06:45.476Z,25.34
2018-04-13T16:12:19.294Z,24.73
2018-04-13T16:14:48.938Z,27.04
2018-04-13T16:17:20.189Z,27.47
2018-04-13T16:20:14.094Z,27.63
2018-04-13T16:22:49.312Z,25.37
2018-04-13T16:25:23.921Z,24.81
2018-04-13T16:28:02.387Z,24.94
2018-04-13T16:30:35.691Z,24.37
2018-04-13T16:33:06.514Z,23.73
2018-04-13T16:38:20.301Z,21.39
2018-04-13T16:40:53.578Z,21.31
2018-04-13T16:43:24.297Z,22.72
2018-04-13T16:45:52.856Z,22.97
2018-04-13T16:48:26.981Z,21.79
2018-04-13T16:50:58.249Z,21.32
2018-04-13T16:53:35.453Z,20.68
2018-04-13T17:01:52.567Z,18.49
2018-04-13T17:04:26.003Z,17.65
2018-04-13T17:06:58.952Z,17.05
2018-04-13T17:09:35.208Z,16.50
2018-04-13T17:24:25.526Z,14.87
